sensor_id;sensor_type;location;lat;lon;timestamp;pressure;altitude;pressure_sealevel;temperature;humidity
53916;BME280;39827;49.652;18.770;2023-03-14T00:01:19;95127.06;;;9.75;58.42
53916;BME280;39827;49.652;18.770;2023-03-14T00:03:49;95140.56;;;9.74;58.47
53916;BME280;39827;49.652;18.770;2023-03-14T00:06:14;95134.00;;;9.71;58.67
53916;BME280;39827;49.652;18.770;2023-03-14T00:08:41;95129.28;;;9.68;58.90
53916;BME280;39827;49.652;18.770;2023-03-14T00:11:08;95127.78;;;9.62;59.17
53916;BME280;39827;49.652;18.770;2023-03-14T00:13:34;95122.41;;;9.67;58.65
53916;BME280;39827;49.652;18.770;2023-03-14T00:16:10;95115.41;;;9.76;58.67
53916;BME280;39827;49.652;18.770;2023-03-14T00:18:36;95108.56;;;9.75;58.72
53916;BME280;39827;49.652;18.770;2023-03-14T00:21:04;95098.56;;;9.72;58.38
53916;BME280;39827;49.652;18.770;2023-03-14T00:23:31;95092.41;;;9.77;58.37
53916;BME280;39827;49.652;18.770;2023-03-14T00:26:07;95099.78;;;9.80;58.52
53916;BME280;39827;49.652;18.770;2023-03-14T00:28:33;95071.34;;;9.72;58.75
53916;BME280;39827;49.652;18.770;2023-03-14T00:31:02;95087.13;;;9.77;58.94
53916;BME280;39827;49.652;18.770;2023-03-14T00:33:27;95072.56;;;9.80;58.21
53916;BME280;39827;49.652;18.770;2023-03-14T00:35:58;95099.28;;;9.78;58.72
53916;BME280;39827;49.652;18.770;2023-03-14T00:38:23;95064.47;;;9.71;58.65
53916;BME280;39827;49.652;18.770;2023-03-14T00:40:50;95049.34;;;9.76;58.50
53916;BME280;39827;49.652;18.770;2023-03-14T00:43:16;95045.63;;;9.77;58.52
53916;BME280;39827;49.652;18.770;2023-03-14T00:45:42;95056.13;;;9.83;58.32
53916;BME280;39827;49.652;18.770;2023-03-14T00:48:07;95027.91;;;9.78;58.15
53916;BME280;39827;49.652;18.770;2023-03-14T00:50:32;95030.56;;;9.78;58.59
53916;BME280;39827;49.652;18.770;2023-03-14T00:52:58;95030.19;;;9.85;57.78
53916;BME280;39827;49.652;18.770;2023-03-14T00:55:24;95023.75;;;9.91;58.01
53916;BME280;39827;49.652;18.770;2023-03-14T00:57:49;94996.91;;;9.84;57.81
53916;BME280;39827;49.652;18.770;2023-03-14T01:00:15;95022.63;;;9.78;58.18
53916;BME280;39827;49.652;18.770;2023-03-14T01:02:40;94997.88;;;9.88;57.62
53916;BME280;39827;49.652;18.770;2023-03-14T01:05:06;94965.97;;;9.84;57.99
53916;BME280;39827;49.652;18.770;2023-03-14T01:07:32;94980.41;;;9.73;58.68
53916;BME280;39827;49.652;18.770;2023-03-14T01:09:58;94971.50;;;9.69;58.38
53916;BME280;39827;49.652;18.770;2023-03-14T01:12:23;94981.66;;;9.61;58.19
53916;BME280;39827;49.652;18.770;2023-03-14T01:14:49;94963.84;;;9.67;58.72
53916;BME280;39827;49.652;18.770;2023-03-14T01:17:14;94960.13;;;9.68;58.39
53916;BME280;39827;49.652;18.770;2023-03-14T01:19:40;94971.16;;;9.56;58.74
53916;BME280;39827;49.652;18.770;2023-03-14T01:22:05;94959.03;;;9.55;58.74
53916;BME280;39827;49.652;18.770;2023-03-14T01:24:30;94948.47;;;9.55;59.01
53916;BME280;39827;49.652;18.770;2023-03-14T01:26:56;94933.41;;;9.70;59.06
53916;BME280;39827;49.652;18.770;2023-03-14T01:29:21;94956.00;;;9.62;58.76
53916;BME280;39827;49.652;18.770;2023-03-14T01:31:46;94917.28;;;9.71;58.51
53916;BME280;39827;49.652;18.770;2023-03-14T01:34:12;94907.50;;;9.72;58.32
53916;BME280;39827;49.652;18.770;2023-03-14T01:36:37;94906.13;;;9.74;58.10
53916;BME280;39827;49.652;18.770;2023-03-14T01:39:03;94885.47;;;9.76;58.13
53916;BME280;39827;49.652;18.770;2023-03-14T01:41:31;94881.44;;;9.79;57.96
53916;BME280;39827;49.652;18.770;2023-03-14T01:43:56;94877.84;;;9.89;57.75
53916;BME280;39827;49.652;18.770;2023-03-14T01:46:26;94866.59;;;9.97;57.28
53916;BME280;39827;49.652;18.770;2023-03-14T01:48:57;94860.34;;;10.07;57.25
53916;BME280;39827;49.652;18.770;2023-03-14T01:54:02;94887.16;;;10.14;56.84
53916;BME280;39827;49.652;18.770;2023-03-14T01:56:31;94864.72;;;10.12;56.78
53916;BME280;39827;49.652;18.770;2023-03-14T01:58:57;94847.59;;;10.09;56.68
53916;BME280;39827;49.652;18.770;2023-03-14T02:01:24;94860.81;;;10.09;56.68
53916;BME280;39827;49.652;18.770;2023-03-14T02:03:54;94818.03;;;10.07;56.55
53916;BME280;39827;49.652;18.770;2023-03-14T02:06:24;94825.84;;;10.12;56.62
53916;BME280;39827;49.652;18.770;2023-03-14T02:08:51;94828.97;;;10.14;56.28
53916;BME280;39827;49.652;18.770;2023-03-14T02:11:17;94824.88;;;10.08;56.20
53916;BME280;39827;49.652;18.770;2023-03-14T02:13:44;94812.69;;;10.21;56.19
53916;BME280;39827;49.652;18.770;2023-03-14T02:16:10;94826.53;;;10.18;56.51
53916;BME280;39827;49.652;18.770;2023-03-14T02:18:35;94824.97;;;10.17;56.40
53916;BME280;39827;49.652;18.770;2023-03-14T02:24:03;94798.00;;;10.29;55.70
53916;BME280;39827;49.652;18.770;2023-03-14T02:27:00;94831.50;;;10.48;55.14
53916;BME280;39827;49.652;18.770;2023-03-14T02:29:26;94810.44;;;10.42;55.22
53916;BME280;39827;49.652;18.770;2023-03-14T02:31:52;94797.03;;;10.39;54.74
53916;BME280;39827;49.652;18.770;2023-03-14T02:34:18;94789.97;;;10.34;54.95
53916;BME280;39827;49.652;18.770;2023-03-14T02:36:43;94782.34;;;10.19;55.60
53916;BME280;39827;49.652;18.770;2023-03-14T02:39:16;94798.00;;;10.29;55.36
53916;BME280;39827;49.652;18.770;2023-03-14T02:41:44;94787.44;;;10.29;55.17
53916;BME280;39827;49.652;18.770;2023-03-14T02:44:11;94790.75;;;10.35;54.87
53916;BME280;39827;49.652;18.770;2023-03-14T02:46:37;94810.38;;;10.20;55.02
53916;BME280;39827;49.652;18.770;2023-03-14T02:49:05;94797.91;;;10.34;54.96
53916;BME280;39827;49.652;18.770;2023-03-14T02:51:32;94798.13;;;10.24;55.44
53916;BME280;39827;49.652;18.770;2023-03-14T02:53:58;94833.22;;;10.15;55.47
53916;BME280;39827;49.652;18.770;2023-03-14T02:56:23;94872.88;;;10.15;55.49
53916;BME280;39827;49.652;18.770;2023-03-14T02:58:49;94828.09;;;10.19;55.24
53916;BME280;39827;49.652;18.770;2023-03-14T03:01:14;94837.69;;;10.15;55.58
53916;BME280;39827;49.652;18.770;2023-03-14T03:03:40;94819.19;;;10.01;55.75
53916;BME280;39827;49.652;18.770;2023-03-14T03:06:05;94842.81;;;9.97;56.26
53916;BME280;39827;49.652;18.770;2023-03-14T03:08:31;94845.72;;;9.96;56.06
53916;BME280;39827;49.652;18.770;2023-03-14T03:10:58;94890.50;;;9.92;56.05
53916;BME280;39827;49.652;18.770;2023-03-14T03:13:23;94909.75;;;9.78;56.84
53916;BME280;39827;49.652;18.770;2023-03-14T03:15:49;94850.91;;;9.73;57.30
53916;BME280;39827;49.652;18.770;2023-03-14T03:18:15;94870.00;;;9.70;57.37
53916;BME280;39827;49.652;18.770;2023-03-14T03:20:40;94853.25;;;9.60;57.38
53916;BME280;39827;49.652;18.770;2023-03-14T03:23:06;94852.25;;;9.56;57.61
53916;BME280;39827;49.652;18.770;2023-03-14T03:25:31;94877.59;;;9.57;57.71
53916;BME280;39827;49.652;18.770;2023-03-14T03:27:57;94836.00;;;9.49;57.72
53916;BME280;39827;49.652;18.770;2023-03-14T03:30:23;94858.78;;;9.45;58.26
53916;BME280;39827;49.652;18.770;2023-03-14T03:32:49;94879.91;;;9.45;57.94
53916;BME280;39827;49.652;18.770;2023-03-14T03:35:14;94833.66;;;9.61;57.89
53916;BME280;39827;49.652;18.770;2023-03-14T03:37:40;94859.53;;;9.64;57.56
53916;BME280;39827;49.652;18.770;2023-03-14T03:40:07;94841.22;;;9.68;57.95
53916;BME280;39827;49.652;18.770;2023-03-14T03:42:34;94817.66;;;9.72;57.72
53916;BME280;39827;49.652;18.770;2023-03-14T03:45:00;94818.81;;;9.65;57.63
53916;BME280;39827;49.652;18.770;2023-03-14T03:47:27;94785.25;;;9.66;57.46
53916;BME280;39827;49.652;18.770;2023-03-14T03:49:52;94791.78;;;9.69;57.65
53916;BME280;39827;49.652;18.770;2023-03-14T03:52:18;94791.00;;;9.68;57.46
53916;BME280;39827;49.652;18.770;2023-03-14T03:54:44;94792.19;;;9.62;57.96
53916;BME280;39827;49.652;18.770;2023-03-14T03:57:09;94782.47;;;9.57;57.65
53916;BME280;39827;49.652;18.770;2023-03-14T03:59:34;94741.19;;;9.61;57.84
53916;BME280;39827;49.652;18.770;2023-03-14T04:02:00;94724.28;;;9.62;58.15
53916;BME280;39827;49.652;18.770;2023-03-14T04:04:25;94765.66;;;9.53;58.10
53916;BME280;39827;49.652;18.770;2023-03-14T04:06:51;94843.25;;;9.57;57.99
53916;BME280;39827;49.652;18.770;2023-03-14T04:09:16;94751.47;;;9.63;57.93
53916;BME280;39827;49.652;18.770;2023-03-14T04:11:42;94742.56;;;9.59;57.85
53916;BME280;39827;49.652;18.770;2023-03-14T04:14:07;94772.13;;;9.61;58.36
53916;BME280;39827;49.652;18.770;2023-03-14T04:16:33;94741.28;;;9.56;58.19
53916;BME280;39827;49.652;18.770;2023-03-14T04:18:58;94734.44;;;9.55;58.02
53916;BME280;39827;49.652;18.770;2023-03-14T04:21:24;94771.16;;;9.57;57.75
53916;BME280;39827;49.652;18.770;2023-03-14T04:23:49;94749.78;;;9.53;57.86
53916;BME280;39827;49.652;18.770;2023-03-14T04:26:16;94748.53;;;9.36;58.15
53916;BME280;39827;49.652;18.770;2023-03-14T04:28:41;94757.84;;;9.62;58.25
53916;BME280;39827;49.652;18.770;2023-03-14T04:31:11;94748.13;;;9.57;57.67
53916;BME280;39827;49.652;18.770;2023-03-14T04:33:37;94744.31;;;9.49;58.25
53916;BME280;39827;49.652;18.770;2023-03-14T04:36:04;94746.56;;;9.56;57.56
53916;BME280;39827;49.652;18.770;2023-03-14T04:38:30;94742.19;;;9.51;57.95
53916;BME280;39827;49.652;18.770;2023-03-14T04:40:55;94754.03;;;9.54;57.91
53916;BME280;39827;49.652;18.770;2023-03-14T04:43:21;94734.25;;;9.51;58.05
53916;BME280;39827;49.652;18.770;2023-03-14T04:45:46;94733.19;;;9.52;58.07
53916;BME280;39827;49.652;18.770;2023-03-14T04:48:11;94738.66;;;9.56;57.73
53916;BME280;39827;49.652;18.770;2023-03-14T04:50:38;94741.28;;;9.70;57.77
53916;BME280;39827;49.652;18.770;2023-03-14T04:53:03;94728.88;;;9.57;57.61
53916;BME280;39827;49.652;18.770;2023-03-14T04:55:29;94754.50;;;9.70;57.40
53916;BME280;39827;49.652;18.770;2023-03-14T04:57:54;94753.63;;;9.61;57.63
53916;BME280;39827;49.652;18.770;2023-03-14T05:00:19;94746.88;;;9.69;57.88
53916;BME280;39827;49.652;18.770;2023-03-14T05:02:45;94741.97;;;9.62;57.69
53916;BME280;39827;49.652;18.770;2023-03-14T05:05:11;94772.78;;;9.67;57.54
53916;BME280;39827;49.652;18.770;2023-03-14T05:07:36;94759.09;;;9.64;57.89
53916;BME280;39827;49.652;18.770;2023-03-14T05:10:02;94776.81;;;9.36;58.71
53916;BME280;39827;49.652;18.770;2023-03-14T05:12:27;94743.53;;;9.49;59.00
53916;BME280;39827;49.652;18.770;2023-03-14T05:14:53;94769.28;;;9.57;58.44
53916;BME280;39827;49.652;18.770;2023-03-14T05:17:18;94759.38;;;9.49;58.25
53916;BME280;39827;49.652;18.770;2023-03-14T05:19:44;94754.03;;;9.54;58.54
53916;BME280;39827;49.652;18.770;2023-03-14T05:22:10;94762.22;;;9.67;58.08
53916;BME280;39827;49.652;18.770;2023-03-14T05:24:35;94752.81;;;9.46;58.69
53916;BME280;39827;49.652;18.770;2023-03-14T05:27:02;94737.59;;;9.43;58.73
53916;BME280;39827;49.652;18.770;2023-03-14T05:29:27;94762.91;;;9.44;58.70
53916;BME280;39827;49.652;18.770;2023-03-14T05:31:52;94740.28;;;9.38;58.87
53916;BME280;39827;49.652;18.770;2023-03-14T05:34:18;94789.13;;;9.27;59.45
53916;BME280;39827;49.652;18.770;2023-03-14T05:36:43;94756.16;;;9.38;58.97
53916;BME280;39827;49.652;18.770;2023-03-14T05:39:09;94713.72;;;9.48;58.86
53916;BME280;39827;49.652;18.770;2023-03-14T05:41:34;94724.66;;;9.28;59.48
53916;BME280;39827;49.652;18.770;2023-03-14T05:44:01;94726.31;;;9.37;59.20
53916;BME280;39827;49.652;18.770;2023-03-14T05:46:26;94752.94;;;9.41;58.86
53916;BME280;39827;49.652;18.770;2023-03-14T05:48:52;94704.22;;;9.33;59.18
53916;BME280;39827;49.652;18.770;2023-03-14T05:51:17;94719.97;;;9.38;59.24
53916;BME280;39827;49.652;18.770;2023-03-14T05:53:42;94659.91;;;9.30;59.26
53916;BME280;39827;49.652;18.770;2023-03-14T05:56:08;94662.53;;;9.30;59.56
53916;BME280;39827;49.652;18.770;2023-03-14T05:58:34;94682.00;;;9.34;59.41
53916;BME280;39827;49.652;18.770;2023-03-14T06:01:03;94680.06;;;9.40;59.56
53916;BME280;39827;49.652;18.770;2023-03-14T06:03:29;94684.84;;;9.38;59.32
53916;BME280;39827;49.652;18.770;2023-03-14T06:05:54;94677.88;;;9.42;59.86
53916;BME280;39827;49.652;18.770;2023-03-14T06:08:20;94667.13;;;9.38;59.90
53916;BME280;39827;49.652;18.770;2023-03-14T06:10:45;94695.78;;;9.31;59.92
53916;BME280;39827;49.652;18.770;2023-03-14T06:13:11;94690.22;;;9.47;59.55
53916;BME280;39827;49.652;18.770;2023-03-14T06:15:36;94652.84;;;9.39;59.74
53916;BME280;39827;49.652;18.770;2023-03-14T06:18:02;94691.78;;;9.48;59.62
53916;BME280;39827;49.652;18.770;2023-03-14T06:20:28;94659.00;;;9.49;59.67
53916;BME280;39827;49.652;18.770;2023-03-14T06:22:53;94714.19;;;9.50;59.88
53916;BME280;39827;49.652;18.770;2023-03-14T06:25:19;94664.84;;;9.60;59.60
53916;BME280;39827;49.652;18.770;2023-03-14T06:27:44;94696.94;;;9.67;59.18
53916;BME280;39827;49.652;18.770;2023-03-14T06:30:10;94711.16;;;9.57;59.74
53916;BME280;39827;49.652;18.770;2023-03-14T06:32:35;94674.25;;;9.66;59.42
53916;BME280;39827;49.652;18.770;2023-03-14T06:35:01;94665.88;;;9.50;59.79
53916;BME280;39827;49.652;18.770;2023-03-14T06:37:28;94744.34;;;9.63;59.43
53916;BME280;39827;49.652;18.770;2023-03-14T06:39:54;94658.91;;;9.54;59.90
53916;BME280;39827;49.652;18.770;2023-03-14T06:42:19;94772.91;;;9.61;59.92
53916;BME280;39827;49.652;18.770;2023-03-14T06:44:44;94687.56;;;9.61;59.75
53916;BME280;39827;49.652;18.770;2023-03-14T06:47:10;94652.94;;;9.62;59.48
53916;BME280;39827;49.652;18.770;2023-03-14T06:49:35;94652.72;;;9.59;59.77
53916;BME280;39827;49.652;18.770;2023-03-14T06:52:00;94661.72;;;9.72;59.36
53916;BME280;39827;49.652;18.770;2023-03-14T06:54:26;94694.31;;;9.67;60.08
53916;BME280;39827;49.652;18.770;2023-03-14T06:56:51;94679.69;;;9.84;59.34
53916;BME280;39827;49.652;18.770;2023-03-14T06:59:17;94694.72;;;9.60;59.44
53916;BME280;39827;49.652;18.770;2023-03-14T07:01:42;94719.34;;;9.70;59.23
53916;BME280;39827;49.652;18.770;2023-03-14T07:04:09;94689.13;;;9.76;59.27
53916;BME280;39827;49.652;18.770;2023-03-14T07:06:34;94701.84;;;9.74;59.22
53916;BME280;39827;49.652;18.770;2023-03-14T07:09:00;94694.50;;;9.71;59.01
53916;BME280;39827;49.652;18.770;2023-03-14T07:11:25;94700.63;;;9.94;58.68
53916;BME280;39827;49.652;18.770;2023-03-14T07:13:51;94694.88;;;9.92;58.66
53916;BME280;39827;49.652;18.770;2023-03-14T07:16:16;94710.50;;;9.88;58.83
53916;BME280;39827;49.652;18.770;2023-03-14T07:18:42;94707.44;;;10.46;57.11
53916;BME280;39827;49.652;18.770;2023-03-14T07:21:08;94732.06;;;10.69;56.21
53916;BME280;39827;49.652;18.770;2023-03-14T07:23:37;94736.31;;;10.79;55.85
53916;BME280;39827;49.652;18.770;2023-03-14T07:26:02;94745.34;;;10.78;55.68
53916;BME280;39827;49.652;18.770;2023-03-14T07:28:28;94715.84;;;10.94;55.82
53916;BME280;39827;49.652;18.770;2023-03-14T07:30:54;94737.28;;;10.84;56.09
53916;BME280;39827;49.652;18.770;2023-03-14T07:33:20;94733.03;;;10.37;57.31
53916;BME280;39827;49.652;18.770;2023-03-14T07:35:49;94747.78;;;10.15;57.81
53916;BME280;39827;49.652;18.770;2023-03-14T07:38:15;94749.56;;;10.06;58.56
53916;BME280;39827;49.652;18.770;2023-03-14T07:40:40;94753.56;;;10.17;58.89
53916;BME280;39827;49.652;18.770;2023-03-14T07:43:06;94794.41;;;9.97;58.99
53916;BME280;39827;49.652;18.770;2023-03-14T07:45:31;94788.56;;;10.00;58.92
53916;BME280;39827;49.652;18.770;2023-03-14T07:47:57;94741.91;;;10.18;59.29
53916;BME280;39827;49.652;18.770;2023-03-14T07:50:26;94752.41;;;10.09;59.23
53916;BME280;39827;49.652;18.770;2023-03-14T07:52:51;94738.31;;;10.51;58.31
53916;BME280;39827;49.652;18.770;2023-03-14T07:55:17;94768.19;;;10.51;57.80
53916;BME280;39827;49.652;18.770;2023-03-14T07:57:42;94763.63;;;10.66;57.47
53916;BME280;39827;49.652;18.770;2023-03-14T08:00:08;94834.53;;;10.41;58.13
53916;BME280;39827;49.652;18.770;2023-03-14T08:02:34;94732.81;;;10.47;58.41
53916;BME280;39827;49.652;18.770;2023-03-14T08:05:01;94735.19;;;10.72;57.79
53916;BME280;39827;49.652;18.770;2023-03-14T08:07:26;94735.00;;;10.45;58.95
53916;BME280;39827;49.652;18.770;2023-03-14T08:09:52;94849.94;;;10.25;59.67
53916;BME280;39827;49.652;18.770;2023-03-14T08:12:17;94748.44;;;10.35;59.49
53916;BME280;39827;49.652;18.770;2023-03-14T08:14:42;94745.28;;;10.33;60.35
53916;BME280;39827;49.652;18.770;2023-03-14T08:17:08;94746.09;;;10.33;59.98
53916;BME280;39827;49.652;18.770;2023-03-14T08:19:34;94728.88;;;10.22;60.56
53916;BME280;39827;49.652;18.770;2023-03-14T08:21:59;94763.63;;;10.29;60.60
53916;BME280;39827;49.652;18.770;2023-03-14T08:24:25;94787.22;;;10.39;60.57
53916;BME280;39827;49.652;18.770;2023-03-14T08:26:50;94699.22;;;10.48;60.35
53916;BME280;39827;49.652;18.770;2023-03-14T08:29:15;94767.84;;;10.44;60.53
53916;BME280;39827;49.652;18.770;2023-03-14T08:31:41;94772.50;;;10.47;60.70
53916;BME280;39827;49.652;18.770;2023-03-14T08:34:07;94754.78;;;10.48;60.86
53916;BME280;39827;49.652;18.770;2023-03-14T08:36:32;94741.31;;;10.58;60.59
53916;BME280;39827;49.652;18.770;2023-03-14T08:38:58;94751.25;;;10.75;60.13
53916;BME280;39827;49.652;18.770;2023-03-14T08:41:24;94782.88;;;10.80;60.14
53916;BME280;39827;49.652;18.770;2023-03-14T08:43:49;94811.28;;;11.12;59.05
53916;BME280;39827;49.652;18.770;2023-03-14T08:46:15;94811.63;;;11.82;57.30
53916;BME280;39827;49.652;18.770;2023-03-14T08:48:40;94810.72;;;12.81;54.73
53916;BME280;39827;49.652;18.770;2023-03-14T08:51:07;94815.34;;;13.37;53.40
53916;BME280;39827;49.652;18.770;2023-03-14T08:53:33;94815.03;;;13.38;52.13
53916;BME280;39827;49.652;18.770;2023-03-14T08:55:58;94838.81;;;12.55;54.30
53916;BME280;39827;49.652;18.770;2023-03-14T08:58:24;94817.47;;;12.02;55.61
53916;BME280;39827;49.652;18.770;2023-03-14T09:00:49;94808.00;;;11.69;56.69
53916;BME280;39827;49.652;18.770;2023-03-14T09:03:15;94844.22;;;11.74;56.77
53916;BME280;39827;49.652;18.770;2023-03-14T09:05:40;94836.50;;;12.04;56.32
53916;BME280;39827;49.652;18.770;2023-03-14T09:08:06;94842.59;;;12.72;54.34
53916;BME280;39827;49.652;18.770;2023-03-14T09:10:31;94857.72;;;13.33;52.99
53916;BME280;39827;49.652;18.770;2023-03-14T09:12:57;94867.91;;;13.31;53.39
53916;BME280;39827;49.652;18.770;2023-03-14T09:15:23;94865.84;;;13.54;51.86
53916;BME280;39827;49.652;18.770;2023-03-14T09:17:49;94874.56;;;13.81;51.16
53916;BME280;39827;49.652;18.770;2023-03-14T09:20:15;94879.00;;;14.07;50.48
53916;BME280;39827;49.652;18.770;2023-03-14T09:22:41;94875.00;;;13.84;51.76
53916;BME280;39827;49.652;18.770;2023-03-14T09:25:06;94874.88;;;13.71;51.79
53916;BME280;39827;49.652;18.770;2023-03-14T09:27:32;94873.81;;;12.66;53.58
53916;BME280;39827;49.652;18.770;2023-03-14T09:29:57;94859.44;;;12.67;54.86
53916;BME280;39827;49.652;18.770;2023-03-14T09:32:23;94886.13;;;12.44;54.80
53916;BME280;39827;49.652;18.770;2023-03-14T09:34:48;94874.09;;;12.38;55.17
53916;BME280;39827;49.652;18.770;2023-03-14T09:37:14;94874.06;;;12.20;55.88
53916;BME280;39827;49.652;18.770;2023-03-14T09:39:41;94877.66;;;12.24;55.89
53916;BME280;39827;49.652;18.770;2023-03-14T09:42:08;94874.84;;;12.30;55.63
53916;BME280;39827;49.652;18.770;2023-03-14T09:44:45;94884.84;;;12.33;55.63
53916;BME280;39827;49.652;18.770;2023-03-14T09:47:16;94868.59;;;12.34;55.67
53916;BME280;39827;49.652;18.770;2023-03-14T09:49:45;94870.69;;;12.46;56.02
53916;BME280;39827;49.652;18.770;2023-03-14T09:52:32;94862.19;;;12.18;56.52
53916;BME280;39827;49.652;18.770;2023-03-14T09:55:05;94854.50;;;12.07;56.98
53916;BME280;39827;49.652;18.770;2023-03-14T09:57:34;94848.03;;;11.99;57.60
53916;BME280;39827;49.652;18.770;2023-03-14T10:00:05;94839.44;;;11.94;57.66
53916;BME280;39827;49.652;18.770;2023-03-14T10:02:40;94857.13;;;11.76;58.05
53916;BME280;39827;49.652;18.770;2023-03-14T10:05:18;94838.25;;;11.68;58.67
53916;BME280;39827;49.652;18.770;2023-03-14T10:07:45;94835.84;;;11.58;59.25
53916;BME280;39827;49.652;18.770;2023-03-14T10:12:46;94837.00;;;11.66;59.42
53916;BME280;39827;49.652;18.770;2023-03-14T10:15:14;94838.94;;;11.83;58.96
53916;BME280;39827;49.652;18.770;2023-03-14T10:17:50;94856.91;;;11.95;58.87
53916;BME280;39827;49.652;18.770;2023-03-14T10:22:58;94874.06;;;12.20;57.79
53916;BME280;39827;49.652;18.770;2023-03-14T10:25:32;94868.75;;;12.29;57.40
53916;BME280;39827;49.652;18.770;2023-03-14T10:27:59;94859.69;;;12.21;57.41
53916;BME280;39827;49.652;18.770;2023-03-14T10:30:47;94878.69;;;12.64;56.73
53916;BME280;39827;49.652;18.770;2023-03-14T10:33:23;94861.03;;;13.03;55.85
53916;BME280;39827;49.652;18.770;2023-03-14T10:38:36;94865.78;;;13.72;54.62
53916;BME280;39827;49.652;18.770;2023-03-14T10:41:03;94861.41;;;13.76;54.59
53916;BME280;39827;49.652;18.770;2023-03-14T10:43:40;94865.03;;;13.72;53.10
53916;BME280;39827;49.652;18.770;2023-03-14T10:46:11;94864.53;;;13.78;53.47
53916;BME280;39827;49.652;18.770;2023-03-14T10:48:38;94854.75;;;13.52;53.97
53916;BME280;39827;49.652;18.770;2023-03-14T10:51:11;94850.19;;;13.62;54.82
53916;BME280;39827;49.652;18.770;2023-03-14T10:53:47;94847.22;;;13.54;56.07
53916;BME280;39827;49.652;18.770;2023-03-14T10:56:21;94846.81;;;13.08;55.21
53916;BME280;39827;49.652;18.770;2023-03-14T10:58:48;94856.50;;;13.13;55.25
53916;BME280;39827;49.652;18.770;2023-03-14T11:09:46;94829.44;;;13.11;56.16
53916;BME280;39827;49.652;18.770;2023-03-14T11:20:26;94817.41;;;13.31;57.11
53916;BME280;39827;49.652;18.770;2023-03-14T11:23:01;94814.56;;;13.54;57.27
53916;BME280;39827;49.652;18.770;2023-03-14T11:31:01;94809.75;;;13.21;56.36
53916;BME280;39827;49.652;18.770;2023-03-14T11:33:38;94814.16;;;13.08;57.32
53916;BME280;39827;49.652;18.770;2023-03-14T11:36:08;94827.69;;;13.33;56.88
53916;BME280;39827;49.652;18.770;2023-03-14T11:38:38;94806.97;;;12.99;58.08
53916;BME280;39827;49.652;18.770;2023-03-14T11:41:30;94827.09;;;13.09;58.02
53916;BME280;39827;49.652;18.770;2023-03-14T11:43:58;94820.56;;;12.89;59.23
53916;BME280;39827;49.652;18.770;2023-03-14T11:46:29;94826.34;;;12.91;59.31
53916;BME280;39827;49.652;18.770;2023-03-14T11:51:56;94800.41;;;12.35;60.50
53916;BME280;39827;49.652;18.770;2023-03-14T11:56:55;94795.72;;;12.67;60.19
53916;BME280;39827;49.652;18.770;2023-03-14T11:59:33;94790.41;;;12.67;60.21
53916;BME280;39827;49.652;18.770;2023-03-14T12:10:51;94795.41;;;12.42;61.52
53916;BME280;39827;49.652;18.770;2023-03-14T12:13:18;94777.13;;;12.23;62.54
53916;BME280;39827;49.652;18.770;2023-03-14T12:15:56;94777.72;;;12.11;62.87
53916;BME280;39827;49.652;18.770;2023-03-14T12:18:50;94789.47;;;12.45;62.45
53916;BME280;39827;49.652;18.770;2023-03-14T12:21:16;94785.72;;;12.73;61.59
53916;BME280;39827;49.652;18.770;2023-03-14T12:23:53;94779.31;;;12.74;61.86
53916;BME280;39827;49.652;18.770;2023-03-14T12:26:22;94778.56;;;12.73;61.36
53916;BME280;39827;49.652;18.770;2023-03-14T12:32:07;94767.47;;;12.62;62.33
53916;BME280;39827;49.652;18.770;2023-03-14T12:34:34;94766.53;;;12.76;61.39
53916;BME280;39827;49.652;18.770;2023-03-14T12:40:03;94775.75;;;12.61;62.41
53916;BME280;39827;49.652;18.770;2023-03-14T12:42:43;94773.41;;;12.68;62.12
53916;BME280;39827;49.652;18.770;2023-03-14T12:47:53;94783.72;;;12.61;62.44
53916;BME280;39827;49.652;18.770;2023-03-14T12:50:24;94770.75;;;12.42;63.16
53916;BME280;39827;49.652;18.770;2023-03-14T12:58:47;94777.28;;;12.27;63.91
53916;BME280;39827;49.652;18.770;2023-03-14T13:01:20;94780.09;;;12.21;64.21
53916;BME280;39827;49.652;18.770;2023-03-14T13:03:56;94785.09;;;12.49;63.68
53916;BME280;39827;49.652;18.770;2023-03-14T13:12:03;94782.59;;;12.44;64.13
53916;BME280;39827;49.652;18.770;2023-03-14T13:14:34;94797.09;;;12.20;65.31
53916;BME280;39827;49.652;18.770;2023-03-14T13:17:01;94791.47;;;12.13;65.56
53916;BME280;39827;49.652;18.770;2023-03-14T13:19:29;94806.16;;;12.28;65.98
53916;BME280;39827;49.652;18.770;2023-03-14T13:22:02;94810.09;;;12.40;65.55
53916;BME280;39827;49.652;18.770;2023-03-14T13:24:28;94800.38;;;12.17;66.54
53916;BME280;39827;49.652;18.770;2023-03-14T13:26:56;94796.16;;;12.25;65.83
53916;BME280;39827;49.652;18.770;2023-03-14T13:31:50;94801.34;;;12.39;65.24
53916;BME280;39827;49.652;18.770;2023-03-14T13:34:17;94803.81;;;12.18;66.52
53916;BME280;39827;49.652;18.770;2023-03-14T13:36:43;94798.50;;;12.27;66.68
53916;BME280;39827;49.652;18.770;2023-03-14T13:39:20;94799.47;;;12.40;66.78
53916;BME280;39827;49.652;18.770;2023-03-14T13:41:47;94801.66;;;12.37;67.82
53916;BME280;39827;49.652;18.770;2023-03-14T13:44:26;94799.78;;;12.38;67.66
53916;BME280;39827;49.652;18.770;2023-03-14T13:46:58;94797.41;;;12.19;66.95
53916;BME280;39827;49.652;18.770;2023-03-14T13:49:25;94801.31;;;12.21;67.27
53916;BME280;39827;49.652;18.770;2023-03-14T13:51:51;94795.56;;;12.28;66.87
53916;BME280;39827;49.652;18.770;2023-03-14T13:54:19;94804.59;;;12.27;67.11
53916;BME280;39827;49.652;18.770;2023-03-14T13:56:45;94794.16;;;12.31;66.98
53916;BME280;39827;49.652;18.770;2023-03-14T13:59:28;94810.25;;;12.43;67.03
53916;BME280;39827;49.652;18.770;2023-03-14T14:01:56;94797.41;;;12.28;67.96
53916;BME280;39827;49.652;18.770;2023-03-14T14:04:24;94806.16;;;12.28;68.00
53916;BME280;39827;49.652;18.770;2023-03-14T14:06:57;94792.72;;;12.16;69.16
53916;BME280;39827;49.652;18.770;2023-03-14T14:09:27;94798.94;;;12.11;68.67